Time;durP1;ratioP1;P1;durP2;ratioP2;P2;SDS_P1;SDS_P2;PMS_P1;PMS_P2;Temp;Humidity;BMP_temperature;BMP_pressure;BME280_temperature;BME280_humidity;BME280_pressure;Samples;Min_cycle;Max_cycle;Signal;HPM_P1;HPM_P2
2022/04/19 00:00:05;;;;;;;9.63;4.35;;;;;;;11.47;40.46;97621.09;4425432;32;20073;-80
2022/04/19 00:02:32;;;;;;;11.90;4.65;;;;;;;12.48;37.42;97610.41;4425563;32;20115;-80
2022/04/19 00:04:59;;;;;;;9.57;4.00;;;;;;;13.04;35.18;97615.69;4425066;32;20706;-80
2022/04/19 00:07:26;;;;;;;10.30;4.22;;;;;;;12.19;36.67;97610.28;4425456;32;20137;-80
2022/04/19 00:09:53;;;;;;;8.77;4.00;;;;;;;12.40;36.62;97616.00;4425260;32;20173;-80
2022/04/19 00:12:20;;;;;;;9.57;4.30;;;;;;;11.88;38.82;97621.50;4424941;32;20102;-80
2022/04/19 00:14:47;;;;;;;10.38;4.32;;;;;;;11.49;39.50;97608.97;4425095;32;20116;-80
2022/04/19 00:17:14;;;;;;;11.55;4.40;;;;;;;11.57;39.20;97612.78;4425515;32;20086;-80
2022/04/19 00:19:41;;;;;;;9.70;4.25;;;;;;;11.31;39.67;97600.44;4425037;32;20081;-80
2022/04/19 00:22:08;;;;;;;11.00;4.62;;;;;;;11.66;38.91;97598.53;4425350;32;20105;-80
2022/04/19 00:24:35;;;;;;;10.20;4.25;;;;;;;11.29;39.98;97594.53;4425302;32;20112;-80
2022/04/19 00:27:02;;;;;;;10.55;4.12;;;;;;;11.47;39.69;97595.28;4424998;32;20090;-80
2022/04/19 00:29:29;;;;;;;9.32;4.32;;;;;;;11.64;38.59;97594.38;4425219;32;20168;-80
2022/04/19 00:31:56;;;;;;;10.02;4.50;;;;;;;12.06;38.25;97586.06;4425345;32;20146;-80
2022/04/19 00:34:23;;;;;;;11.02;4.35;;;;;;;12.21;38.06;97587.75;4424843;32;20110;-80
2022/04/19 00:36:50;;;;;;;10.85;4.32;;;;;;;12.35;37.97;97587.00;4425312;32;20539;-80
2022/04/19 00:39:17;;;;;;;10.45;4.82;;;;;;;12.80;37.03;97585.25;4425083;32;20107;-80
2022/04/19 00:41:43;;;;;;;10.20;4.60;;;;;;;12.50;37.31;97586.09;4425386;32;20145;-80
2022/04/19 00:44:11;;;;;;;10.05;4.50;;;;;;;12.77;36.33;97580.25;4425092;32;20120;-80
2022/04/19 00:46:38;;;;;;;11.80;4.95;;;;;;;12.03;37.25;97575.88;4424976;32;20165;-80
2022/04/19 00:49:05;;;;;;;9.65;4.10;;;;;;;11.90;37.85;97572.28;4425011;32;20081;-80
2022/04/19 00:51:32;;;;;;;10.45;5.25;;;;;;;12.58;36.61;97563.22;4425159;32;20102;-80
2022/04/19 00:53:59;;;;;;;11.65;4.72;;;;;;;12.49;36.72;97566.31;4410837;32;20113;-80
2022/04/19 00:56:26;;;;;;;10.90;4.80;;;;;;;12.70;35.90;97562.50;4410464;32;20102;-80
2022/04/19 00:58:54;;;;;;;12.13;4.57;;;;;;;11.45;38.65;97564.38;4424955;32;20553;-80
2022/04/19 01:01:21;;;;;;;10.02;4.60;;;;;;;12.10;38.00;97565.09;4410818;32;20456;-80
2022/04/19 01:03:48;;;;;;;10.20;5.10;;;;;;;11.94;38.33;97564.31;4425010;32;20098;-80
2022/04/19 01:06:15;;;;;;;9.93;4.57;;;;;;;12.09;38.00;97563.44;4424814;32;20086;-80
2022/04/19 01:08:44;;;;;;;12.68;5.20;;;;;;;11.57;39.41;97553.34;4410842;32;20081;-80
2022/04/19 01:13:57;;;;;;;10.40;4.80;;;;;;;11.68;39.44;97555.34;4424693;32;20181;-80
2022/04/19 01:16:24;;;;;;;10.43;4.82;;;;;;;11.18;40.45;97560.69;4410700;32;20171;-80
2022/04/19 01:18:53;;;;;;;11.10;4.90;;;;;;;11.20;40.66;97557.09;4411061;32;20105;-80
2022/04/19 01:21:20;;;;;;;11.93;5.28;;;;;;;10.12;43.24;97544.56;4424467;32;20433;-80
2022/04/19 01:23:49;;;;;;;11.57;4.95;;;;;;;10.42;42.66;97552.56;4424806;32;20532;-80
2022/04/19 01:26:17;;;;;;;23.50;5.40;;;;;;;9.51;44.33;97535.41;4424650;32;20094;-80
2022/04/19 01:28:45;;;;;;;10.70;5.12;;;;;;;9.86;44.19;97545.78;4424170;32;20112;-80
2022/04/19 01:31:12;;;;;;;12.43;5.18;;;;;;;10.77;42.31;97544.78;4424599;32;20563;-80
2022/04/19 01:33:39;;;;;;;13.95;5.37;;;;;;;11.55;40.37;97537.13;4424673;32;20464;-80
2022/04/19 01:36:09;;;;;;;10.07;4.50;;;;;;;11.69;40.05;97538.94;4424120;32;20155;-80
2022/04/19 01:38:36;;;;;;;10.45;4.80;;;;;;;10.81;41.23;97530.78;4424482;32;20145;-80
2022/04/19 01:41:03;;;;;;;10.95;5.30;;;;;;;11.75;40.07;97536.03;4424529;32;20109;-79
2022/04/19 01:43:30;;;;;;;11.95;5.70;;;;;;;11.71;40.14;97529.38;4424175;32;20157;-80
2022/04/19 01:45:57;;;;;;;12.05;5.12;;;;;;;11.46;41.24;97529.03;4424209;32;20157;-80
2022/04/19 01:48:24;;;;;;;11.07;5.10;;;;;;;11.32;41.71;97534.94;4424448;32;20077;-80
2022/04/19 01:50:51;;;;;;;11.32;5.45;;;;;;;11.37;41.84;97535.53;4423773;32;20157;-80
2022/04/19 01:53:18;;;;;;;12.32;5.12;;;;;;;11.65;41.11;97524.53;4424382;32;20142;-80
2022/04/19 01:55:45;;;;;;;10.70;4.85;;;;;;;11.42;41.99;97528.38;4424157;32;20624;-80
2022/04/19 01:58:12;;;;;;;11.43;4.97;;;;;;;12.39;39.36;97534.97;4423945;32;20085;-80
2022/04/19 02:00:39;;;;;;;12.63;5.03;;;;;;;12.26;39.76;97533.19;4424105;32;20412;-80
2022/04/19 02:03:06;;;;;;;14.13;5.18;;;;;;;11.77;41.34;97526.41;4424203;32;20153;-80
2022/04/19 02:05:33;;;;;;;10.80;5.10;;;;;;;11.47;42.30;97530.69;4423583;32;20516;-80
2022/04/19 02:08:00;;;;;;;12.52;5.47;;;;;;;11.99;41.46;97538.19;4425021;32;20460;-80
2022/04/19 02:10:27;;;;;;;11.40;5.35;;;;;;;11.75;41.86;97527.44;4425875;32;20121;-80
2022/04/19 02:12:54;;;;;;;12.73;5.43;;;;;;;12.39;40.39;97534.16;4426265;32;20094;-80
2022/04/19 02:15:21;;;;;;;13.00;5.37;;;;;;;12.05;41.10;97530.91;4425852;32;20086;-80
2022/04/19 02:17:49;;;;;;;11.95;4.87;;;;;;;11.58;42.12;97536.09;4425994;32;20121;-80
2022/04/19 02:20:17;;;;;;;10.98;4.85;;;;;;;11.66;41.80;97535.69;4426084;32;20082;-80
2022/04/19 02:22:45;;;;;;;10.00;4.80;;;;;;;11.73;41.79;97529.28;4426118;32;20124;-80
2022/04/19 02:25:14;;;;;;;11.65;5.40;;;;;;;11.83;41.80;97533.03;4411951;32;20089;-80
2022/04/19 02:27:42;;;;;;;11.15;5.55;;;;;;;11.47;42.72;97523.78;4412363;32;20169;-80
2022/04/19 02:30:14;;;;;;;14.32;5.60;;;;;;;11.56;41.97;97519.84;4426049;32;20149;-80
2022/04/19 02:32:43;;;;;;;11.60;5.72;;;;;;;11.45;42.03;97523.03;4425913;32;20150;-80
2022/04/19 02:35:10;;;;;;;12.73;5.82;;;;;;;11.25;43.03;97516.34;4412141;32;20148;-80
2022/04/19 02:37:38;;;;;;;12.35;5.85;;;;;;;11.39;42.36;97509.63;4426127;32;20099;-79
2022/04/19 02:40:06;;;;;;;12.32;5.72;;;;;;;11.34;42.82;97507.28;4425568;32;20150;-79
2022/04/19 02:42:33;;;;;;;13.32;6.07;;;;;;;11.48;42.23;97498.78;4426040;32;20109;-80
2022/04/19 02:45:03;;;;;;;11.52;6.00;;;;;;;11.22;42.10;97502.78;4425901;32;20549;-79
2022/04/19 02:47:30;;;;;;;13.68;6.05;;;;;;;10.94;42.96;97511.16;4425697;32;20077;-80
2022/04/19 02:49:58;;;;;;;12.02;5.62;;;;;;;11.83;40.18;97512.38;4425941;32;20161;-80
2022/04/19 02:52:25;;;;;;;14.50;6.30;;;;;;;10.74;41.87;97507.06;4425627;32;20141;-80
2022/04/19 02:54:52;;;;;;;10.90;5.60;;;;;;;10.07;44.13;97502.69;4425784;32;20109;-80
2022/04/19 02:57:19;;;;;;;11.05;5.87;;;;;;;11.16;41.80;97501.34;4426027;32;20149;-80
2022/04/19 02:59:46;;;;;;;13.15;6.15;;;;;;;10.64;42.60;97495.56;4425509;32;20165;-80
2022/04/19 03:02:14;;;;;;;13.62;6.22;;;;;;;11.41;40.75;97494.88;4425934;32;20124;-80
2022/04/19 03:04:41;;;;;;;12.15;5.60;;;;;;;11.26;40.48;97492.19;4425669;32;20094;-80
2022/04/19 03:07:08;;;;;;;12.25;5.47;;;;;;;11.62;38.59;97490.28;4425529;32;20122;-80
2022/04/19 03:09:35;;;;;;;12.95;5.80;;;;;;;10.69;40.38;97498.72;4425738;32;20094;-80
2022/04/19 03:12:03;;;;;;;13.75;5.93;;;;;;;11.21;39.58;97488.22;4425859;32;20116;-80
2022/04/19 03:14:30;;;;;;;14.45;6.25;;;;;;;11.59;38.76;97488.72;4425116;32;20457;-80
2022/04/19 03:16:57;;;;;;;11.32;5.47;;;;;;;12.44;37.58;97495.88;4425832;32;20081;-80
2022/04/19 03:19:24;;;;;;;12.35;5.93;;;;;;;12.32;38.30;97491.44;4411483;32;20149;-80
2022/04/19 03:21:51;;;;;;;12.68;5.90;;;;;;;12.39;37.50;97490.16;4425399;32;20411;-80
2022/04/19 03:29:48;;;;;;;13.52;6.57;;;;;;;12.35;37.64;97494.69;4425474;32;20110;-80
2022/04/19 03:32:15;;;;;;;13.00;5.72;;;;;;;12.66;37.35;97490.31;4425773;32;20173;-80
2022/04/19 03:34:42;;;;;;;11.65;5.47;;;;;;;11.92;39.48;97491.19;4425259;32;20157;-80
2022/04/19 03:37:09;;;;;;;11.75;5.60;;;;;;;13.03;37.52;97497.50;4425783;32;20154;-80
2022/04/19 03:39:36;;;;;;;12.00;5.22;;;;;;;12.48;38.93;97499.16;4425699;32;20118;-79
2022/04/19 03:42:05;;;;;;;13.20;5.75;;;;;;;12.27;40.37;97498.66;4425299;32;20098;-79
2022/04/19 03:44:33;;;;;;;11.85;5.57;;;;;;;11.52;42.55;97495.13;4425517;32;20145;-80
2022/04/19 03:47:09;;;;;;;13.60;5.93;;;;;;;12.08;41.86;97494.53;4425618;32;20112;-80
2022/04/19 03:49:40;;;;;;;12.52;5.35;;;;;;;11.63;42.38;97497.94;4425230;32;20116;-80
2022/04/19 03:52:07;;;;;;;15.35;5.75;;;;;;;12.14;41.56;97508.87;4425607;32;20472;-80
2022/04/19 03:54:35;;;;;;;10.85;5.75;;;;;;;12.32;40.84;97505.22;4425419;32;20570;-80
2022/04/19 03:57:07;;;;;;;13.23;5.87;;;;;;;12.22;40.88;97500.66;4412266;32;20093;-82
2022/04/19 03:59:38;;;;;;;12.93;6.25;;;;;;;12.08;40.95;97504.88;4428578;32;20093;-81
2022/04/19 04:02:06;;;;;;;14.35;6.80;;;;;;;12.80;39.06;97500.66;4414931;32;20084;-81
2022/04/19 04:04:35;;;;;;;15.63;6.40;;;;;;;13.27;37.72;97504.69;4413318;32;20102;-81
2022/04/19 04:07:03;;;;;;;13.65;6.50;;;;;;;13.13;38.04;97508.13;4426969;32;20153;-81
2022/04/19 04:09:35;;;;;;;13.50;6.00;;;;;;;12.91;38.79;97512.94;4426303;32;20089;-81
2022/04/19 04:12:04;;;;;;;15.32;7.18;;;;;;;12.40;39.88;97508.19;4425700;32;20112;-80
2022/04/19 04:14:35;;;;;;;18.92;7.37;;;;;;;12.56;39.10;97508.13;4424960;32;20149;-80
2022/04/19 04:17:02;;;;;;;13.68;7.00;;;;;;;11.82;41.10;97505.53;4425025;32;20066;-79
2022/04/19 04:19:29;;;;;;;16.42;7.43;;;;;;;11.90;40.96;97515.41;4411389;32;20127;-80
2022/04/19 04:21:56;;;;;;;28.85;7.87;;;;;;;12.10;40.68;97521.12;4425385;32;20127;-80
2022/04/19 04:24:23;;;;;;;19.50;8.23;;;;;;;11.82;41.33;97518.47;4425107;32;20152;-79
2022/04/19 04:26:50;;;;;;;13.55;7.10;;;;;;;12.55;39.96;97513.41;4425261;32;20105;-80
2022/04/19 04:29:17;;;;;;;15.38;6.57;;;;;;;11.77;41.83;97516.09;4425291;32;20098;-79
2022/04/19 04:31:44;;;;;;;14.40;7.47;;;;;;;11.30;42.96;97505.78;4423739;32;20134;-79
2022/04/19 04:34:11;;;;;;;;;;;;;;;11.68;42.16;97511.41;4425450;32;20103;-79
2022/04/19 04:36:38;;;;;;;16.65;7.75;;;;;;;11.37;42.70;97512.28;4425370;32;20311;-79
2022/04/19 04:39:05;;;;;;;16.10;7.70;;;;;;;11.61;42.14;97511.88;4424777;32;20145;-80
2022/04/19 04:41:32;;;;;;;14.38;7.18;;;;;;;11.12;43.25;97511.94;4425261;32;20457;-80
2022/04/19 04:43:59;;;;;;;15.57;7.45;;;;;;;11.67;42.06;97509.75;4425067;32;20078;-79
2022/04/19 04:51:57;;;;;;;13.90;7.25;;;;;;;12.49;41.28;97518.94;4424778;32;20098;-79
2022/04/19 04:54:24;;;;;;;17.12;8.02;;;;;;;12.36;41.51;97513.63;4424986;32;20108;-79
2022/04/19 04:56:52;;;;;;;13.60;6.97;;;;;;;12.41;42.12;97517.59;4425064;32;20153;-80
2022/04/19 04:59:19;;;;;;;15.27;7.12;;;;;;;12.59;41.89;97518.28;4424627;32;20169;-80
2022/04/19 05:01:46;;;;;;;15.55;8.00;;;;;;;12.56;41.61;97515.91;4424932;32;20111;-80
2022/04/19 05:04:13;;;;;;;13.18;7.18;;;;;;;12.81;41.21;97517.84;4424951;32;20097;-80
2022/04/19 05:06:41;;;;;;;14.63;7.07;;;;;;;13.16;40.19;97522.63;4424576;32;20169;-80
2022/04/19 05:09:08;;;;;;;15.45;8.10;;;;;;;12.96;41.05;97519.50;4424696;32;20093;-80
2022/04/19 05:11:35;;;;;;;17.55;8.25;;;;;;;13.49;39.20;97517.97;4424861;32;20124;-80
2022/04/19 05:14:02;;;;;;;15.57;7.70;;;;;;;14.00;37.88;97514.75;4424268;32;20081;-80
2022/04/19 05:16:29;;;;;;;15.70;7.70;;;;;;;14.15;37.29;97516.37;4410896;32;20529;-80
2022/04/19 05:18:56;;;;;;;14.15;6.97;;;;;;;14.28;36.88;97508.59;4424759;32;20173;-80
2022/04/19 05:21:23;;;;;;;15.20;7.72;;;;;;;14.31;36.65;97514.41;4424461;32;20158;-80
2022/04/19 05:23:50;;;;;;;16.85;8.05;;;;;;;13.64;37.83;97511.00;4424685;32;20094;-79
2022/04/19 05:26:17;;;;;;;16.80;7.90;;;;;;;13.01;39.67;97509.69;4424727;32;20399;-79
2022/04/19 05:28:44;;;;;;;15.38;7.78;;;;;;;13.07;39.46;97515.41;4424296;32;20130;-79
2022/04/19 05:31:11;;;;;;;16.25;7.25;;;;;;;12.96;40.24;97513.47;4424835;32;20170;-80
2022/04/19 05:33:38;;;;;;;14.27;7.43;;;;;;;13.38;39.41;97509.22;4424562;32;20165;-80
2022/04/19 05:36:05;;;;;;;19.02;7.78;;;;;;;13.41;38.99;97519.41;4424074;32;20105;-80
2022/04/19 05:38:32;;;;;;;15.38;8.05;;;;;;;12.57;41.29;97509.78;4424712;32;20146;-79
2022/04/19 05:41:03;;;;;;;14.15;7.50;;;;;;;13.22;40.22;97514.53;4424458;32;20109;-80
2022/04/19 05:43:30;;;;;;;14.27;7.30;;;;;;;13.18;39.76;97513.84;4425748;32;20173;-79
2022/04/19 05:46:00;;;;;;;15.50;7.87;;;;;;;13.55;39.19;97512.41;4426640;32;20425;-81
2022/04/19 05:48:27;;;;;;;14.43;7.50;;;;;;;13.21;39.77;97516.28;4426305;32;20089;-80
2022/04/19 05:50:54;;;;;;;15.52;7.90;;;;;;;13.25;39.85;97516.91;4426800;32;20157;-81
2022/04/19 05:53:21;;;;;;;16.60;8.02;;;;;;;12.62;41.43;97514.69;4413258;32;20102;-81
2022/04/19 05:55:48;;;;;;;14.20;7.45;;;;;;;13.11;40.90;97520.34;4426166;32;20473;-81
2022/04/19 05:58:16;;;;;;;16.48;7.68;;;;;;;13.07;39.76;97512.81;4426873;32;20097;-81
2022/04/19 06:00:43;;;;;;;15.52;6.40;;;;;;;12.10;38.29;97507.38;4428787;32;20089;-79
2022/04/19 06:05:55;;;;;;;13.20;6.82;;;;;;;12.37;35.98;97500.59;4431636;32;20146;-78
2022/04/19 06:08:22;;;;;;;14.57;6.93;;;;;;;11.79;36.55;97498.75;4432568;32;20093;-80
2022/04/19 06:10:50;;;;;;;16.08;7.70;;;;;;;11.82;36.86;97501.19;4431083;32;20145;-79
2022/04/19 06:13:17;;;;;;;13.27;7.25;;;;;;;12.17;37.67;97508.69;4431259;32;20110;-80
2022/04/19 06:19:01;;;;;;;12.45;6.40;;;;;;;12.43;35.73;97512.34;4427963;32;20116;-79
2022/04/19 06:21:28;;;;;;;14.40;7.78;;;;;;;12.61;36.88;97521.63;4431182;32;20105;-79
2022/04/19 06:23:55;;;;;;;16.83;7.15;;;;;;;13.19;36.09;97512.97;4426888;32;20145;-79
2022/04/19 06:26:21;;;;;;;14.38;7.05;;;;;;;12.96;35.37;97519.50;4429420;32;20077;-81
2022/04/19 06:28:48;;;;;;;16.37;7.00;;;;;;;13.47;34.08;97519.00;4429756;32;20101;-81
2022/04/19 06:31:15;;;;;;;16.62;7.20;;;;;;;13.23;35.37;97526.56;4430542;32;20125;-78
2022/04/19 06:33:48;;;;;;;14.38;6.75;;;;;;;13.97;34.38;97509.78;4412940;32;20058;-79
2022/04/19 06:36:16;;;;;;;14.40;6.47;;;;;;;13.53;34.33;97503.09;4418452;32;20105;-78
2022/04/19 06:38:43;;;;;;;13.52;7.07;;;;;;;12.95;35.06;97512.66;4419560;32;20086;-78
2022/04/19 06:41:11;;;;;;;13.80;6.07;;;;;;;12.71;37.03;97516.72;4403717;32;20134;-81
2022/04/19 06:43:38;;;;;;;13.43;6.20;;;;;;;13.38;36.51;97507.44;4398134;32;20506;-80
2022/04/19 06:46:08;;;;;;;14.35;6.80;;;;;;;13.73;35.59;97518.22;4397961;32;20524;-81
2022/04/19 06:48:35;;;;;;;12.02;5.93;;;;;;;13.54;36.45;97504.75;4425947;32;20086;-81
2022/04/19 06:51:02;;;;;;;13.55;6.18;;;;;;;13.78;34.70;97515.31;4428466;32;20090;-79
2022/04/19 06:56:31;;;;;;;11.38;6.28;;;;;;;14.71;33.27;97514.38;4554306;26;20102;-80
2022/04/19 06:58:58;;;;;;;11.48;6.18;;;;;;;16.01;30.77;97511.25;4411825;32;20090;-80
2022/04/19 07:01:25;;;;;;;13.32;6.28;;;;;;;15.79;31.29;97505.94;4428989;32;20058;-80
2022/04/19 07:03:53;;;;;;;13.43;6.30;;;;;;;15.45;31.13;97499.72;4433015;32;20463;-79
2022/04/19 07:06:21;;;;;;;15.38;6.97;;;;;;;15.32;31.83;97504.94;4412689;32;20420;-80
2022/04/19 07:08:48;;;;;;;14.68;6.75;;;;;;;15.05;32.67;97502.50;4426253;32;20167;-79
2022/04/19 07:11:17;;;;;;;14.00;6.12;;;;;;;15.63;30.52;97498.44;4426812;32;20510;-80
2022/04/19 07:13:44;;;;;;;13.07;5.90;;;;;;;14.54;30.61;97499.94;4425800;32;20415;-82
2022/04/19 07:16:11;;;;;;;14.80;7.30;;;;;;;15.27;30.77;97500.06;4415971;32;20061;-83
2022/04/19 07:18:38;;;;;;;15.13;6.75;;;;;;;16.90;29.35;97502.00;4430449;32;20094;-83
2022/04/19 07:26:45;;;;;;;11.98;6.22;;;;;;;15.28;28.58;97498.28;4429064;32;20421;-83
2022/04/19 07:29:13;;;;;;;15.75;6.47;;;;;;;15.47;28.01;97498.66;4430181;32;20778;-82
2022/04/19 07:31:44;;;;;;;12.63;5.87;;;;;;;15.03;30.34;97502.59;4428937;32;20109;-81
2022/04/19 07:34:12;;;;;;;13.95;6.30;;;;;;;15.67;28.53;97499.88;4427862;32;20101;-82
2022/04/19 07:36:42;;;;;;;12.13;5.97;;;;;;;15.17;29.52;97501.63;4428314;32;20172;-81
2022/04/19 07:39:10;;;;;;;12.18;6.15;;;;;;;16.17;28.27;97506.59;4413747;32;20106;-80
2022/04/19 07:41:38;;;;;;;14.70;6.30;;;;;;;15.59;28.71;97502.16;4428799;32;20403;-81
2022/04/19 07:44:05;;;;;;;13.15;6.15;;;;;;;16.24;28.67;97496.53;4433808;32;20053;-82
2022/04/19 07:46:33;;;;;;;12.07;5.97;;;;;;;16.13;28.66;97497.34;4434840;32;20114;-82
2022/04/19 07:49:00;;;;;;;12.85;6.60;;;;;;;17.11;26.77;97491.69;4435145;32;20082;-83
2022/04/19 07:51:27;;;;;;;12.70;6.43;;;;;;;16.09;28.51;97500.28;4418807;32;20118;-83
2022/04/19 07:53:55;;;;;;;14.05;6.30;;;;;;;15.74;29.11;97485.50;4432593;32;20149;-82
2022/04/19 07:56:22;;;;;;;12.40;6.37;;;;;;;15.11;30.61;97504.69;4431354;32;20102;-82
2022/04/19 07:58:49;;;;;;;13.00;6.53;;;;;;;15.11;30.69;97496.88;4431502;32;20106;-83
2022/04/19 08:01:17;;;;;;;11.10;5.40;;;;;;;16.12;28.99;97490.47;4408177;32;150118;-82
2022/04/19 08:03:44;;;;;;;12.63;5.70;;;;;;;15.95;28.81;97497.84;4426880;32;20100;-82
2022/04/19 08:06:11;;;;;;;13.90;6.18;;;;;;;15.27;30.59;97487.06;4425251;32;20107;-80
2022/04/19 08:08:42;;;;;;;19.87;6.55;;;;;;;15.19;32.11;97501.53;4411223;32;20120;-81
2022/04/19 08:11:09;;;;;;;12.65;5.72;;;;;;;15.13;32.73;97492.41;4425534;32;20089;-80
2022/04/19 08:13:36;;;;;;;11.88;6.43;;;;;;;14.80;32.55;97498.19;4425435;32;20086;-80
2022/04/19 08:16:05;;;;;;;12.65;6.30;;;;;;;14.66;32.85;97495.66;4424944;32;20108;-81
2022/04/19 08:18:32;;;;;;;14.50;6.55;;;;;;;14.64;33.41;97492.34;4425430;32;20117;-81
2022/04/19 08:20:59;;;;;;;13.02;6.37;;;;;;;14.80;32.91;97497.34;4425449;32;20471;-80
2022/04/19 08:23:26;;;;;;;12.30;6.15;;;;;;;14.20;33.72;97496.13;4425129;32;20169;-80
2022/04/19 08:25:57;;;;;;;15.60;7.18;;;;;;;14.75;34.73;97497.62;4425199;32;20163;-80
2022/04/19 08:28:24;;;;;;;11.98;5.70;;;;;;;14.71;31.78;97491.00;4425173;32;20093;-80
2022/04/19 08:30:51;;;;;;;14.80;7.07;;;;;;;14.30;33.00;97502.38;4424744;32;20081;-81
2022/04/19 08:33:18;;;;;;;15.25;6.95;;;;;;;15.29;30.94;97494.75;4411868;32;20135;-80
2022/04/19 08:35:45;;;;;;;15.00;7.07;;;;;;;14.90;32.07;97496.59;4425856;32;20168;-79
2022/04/19 08:38:12;;;;;;;12.68;6.20;;;;;;;14.82;31.38;97498.06;4425536;32;20085;-80
2022/04/19 08:40:39;;;;;;;11.20;5.50;;;;;;;14.61;32.27;97503.78;4425129;32;20149;-79
2022/04/19 08:43:06;;;;;;;11.50;5.10;;;;;;;14.83;31.58;97505.75;4431747;32;20100;-82
2022/04/19 08:45:33;;;;;;;10.65;4.93;;;;;;;13.92;33.13;97501.44;4436778;32;20173;-82
2022/04/19 08:48:01;;;;;;;10.32;4.87;;;;;;;12.67;35.02;97497.97;4435593;32;20149;-81
2022/04/19 08:50:29;;;;;;;11.23;5.40;;;;;;;11.88;36.53;97494.84;4424516;32;20570;-78
2022/04/19 08:58:29;;;;;;;10.60;4.80;;;;;;;8.83;46.76;97511.06;4424747;32;20169;-79
2022/04/19 09:00:56;;;;;;;11.00;4.90;;;;;;;9.62;43.65;97511.72;4424988;32;20082;-80
2022/04/19 09:03:23;;;;;;;12.10;5.05;;;;;;;10.13;40.72;97516.13;4425294;32;20103;-77
2022/04/19 09:05:51;;;;;;;;;;;;;;;9.80;41.82;97512.59;4411073;32;20101;-80
2022/04/19 09:08:19;;;;;;;12.00;5.45;;;;;;;10.52;41.67;97511.63;4425145;32;20040;-80
2022/04/19 09:10:46;;;;;;;10.45;4.60;;;;;;;11.55;38.81;97519.03;4411253;32;20101;-80
2022/04/19 09:13:23;;;;;;;9.80;4.57;;;;;;;12.06;38.29;97513.66;4424711;32;20109;-80
2022/04/19 09:15:52;;;;;;;;;;;;;;;12.57;36.31;97522.72;4425177;32;20137;-80
2022/04/19 09:18:30;;;;;;;13.48;5.80;;;;;;;12.21;37.44;97525.69;4424068;32;20012;-80
2022/04/19 09:20:58;;;;;;;13.40;6.03;;;;;;;12.85;36.17;97519.31;4424793;32;20117;-80
2022/04/19 09:23:29;;;;;;;10.45;3.85;;;;;;;13.54;37.14;97520.28;4425054;32;20100;-80
2022/04/19 09:26:05;;;;;;;13.43;6.20;;;;;;;14.09;34.98;97527.12;4424377;32;20154;-80
2022/04/19 09:28:34;;;;;;;15.25;7.50;;;;;;;13.89;35.16;97524.06;4424794;32;20090;-80
2022/04/19 09:31:08;;;;;;;12.23;5.85;;;;;;;13.45;38.28;97521.69;4425086;32;20102;-81
2022/04/19 09:33:35;;;;;;;12.43;6.07;;;;;;;14.21;34.97;97521.12;4424633;32;20420;-80
2022/04/19 09:36:04;;;;;;;12.45;6.18;;;;;;;14.68;34.22;97525.81;4425080;32;20082;-80
2022/04/19 09:38:45;;;;;;;11.45;5.80;;;;;;;15.60;32.06;97515.06;4424608;32;20137;-80
2022/04/19 09:41:29;;;;;;;13.23;5.90;;;;;;;16.66;30.60;97515.94;4411140;32;20169;-80
2022/04/19 09:44:09;;;;;;;10.75;5.18;;;;;;;17.59;28.04;97513.91;4426356;32;20452;-81
2022/04/19 09:46:39;;;;;;;11.88;5.62;;;;;;;16.76;29.27;97510.88;4427312;32;20082;-80
2022/04/19 09:49:07;;;;;;;11.57;5.90;;;;;;;17.34;28.82;97515.03;4412411;32;20110;-80
2022/04/19 09:51:35;;;;;;;10.40;5.50;;;;;;;18.01;27.40;97514.06;4411647;32;20132;-80
2022/04/19 09:54:02;;;;;;;10.60;5.47;;;;;;;16.99;28.96;97512.53;4425725;32;20103;-81
2022/04/19 09:56:37;;;;;;;10.52;5.78;;;;;;;16.91;29.36;97508.91;4412674;32;20078;-81
2022/04/19 09:59:17;;;;;;;11.18;6.10;;;;;;;17.64;28.47;97509.16;4415978;32;20129;-81
2022/04/19 10:10:05;;;;;;;11.07;5.30;;;;;;;12.82;35.90;97496.19;4424605;32;20149;-80
2022/04/19 10:12:33;;;;;;;12.25;6.22;;;;;;;13.22;38.12;97488.63;4411504;32;20137;-80
2022/04/19 10:15:03;;;;;;;13.27;5.78;;;;;;;14.17;35.71;97491.97;4410761;32;20832;-81
2022/04/19 10:17:31;;;;;;;12.45;6.75;;;;;;;13.44;35.79;97490.69;4424358;32;20099;-80
2022/04/19 10:20:00;;;;;;;12.30;5.35;;;;;;;14.28;35.27;97493.03;4410279;32;20116;-80
2022/04/19 10:22:27;;;;;;;12.73;5.90;;;;;;;14.34;35.68;97495.19;4423883;32;20112;-80
2022/04/19 10:24:57;;;;;;;12.82;6.65;;;;;;;15.90;33.07;97486.00;4423948;32;20149;-78
2022/04/19 10:27:32;;;;;;;12.15;6.22;;;;;;;16.14;33.45;97492.97;4410954;32;20667;-80
2022/04/19 10:30:01;;;;;;;10.80;5.57;;;;;;;15.54;32.24;97493.84;4425187;32;20158;-81
2022/04/19 10:32:33;;;;;;;12.02;6.30;;;;;;;14.46;33.28;97490.06;4426186;32;20102;-82
2022/04/19 10:35:02;;;;;;;11.45;6.37;;;;;;;15.80;32.73;97486.81;4425935;32;20094;-80
2022/04/19 10:37:29;;;;;;;10.75;5.57;;;;;;;17.31;29.78;97491.78;4426055;32;20149;-80
2022/04/19 10:39:59;;;;;;;12.02;6.12;;;;;;;16.03;32.01;97495.53;4412613;32;20132;-81
2022/04/19 10:42:29;;;;;;;10.57;5.80;;;;;;;15.74;32.54;97489.88;4426122;32;20143;-79
2022/04/19 10:44:56;;;;;;;11.48;6.25;;;;;;;14.79;33.70;97491.31;4426104;32;20097;-80
2022/04/19 10:47:24;;;;;;;11.95;6.20;;;;;;;15.45;32.91;97478.91;4426140;32;20077;-80
2022/04/19 10:50:04;;;;;;;12.65;6.68;;;;;;;15.52;32.51;97487.91;4413129;32;20124;-80
2022/04/19 10:52:39;;;;;;;12.57;6.28;;;;;;;15.95;31.63;97490.91;4426427;32;20151;-80
2022/04/19 10:55:23;;;;;;;12.93;6.50;;;;;;;17.08;29.88;97494.53;4425788;32;20094;-80
2022/04/19 10:58:12;;;;;;;12.55;6.37;;;;;;;15.90;31.90;97487.78;4425960;32;20074;-80
2022/04/19 11:00:43;;;;;;;16.42;7.05;;;;;;;15.28;36.74;97496.53;4432180;32;20181;-80
2022/04/19 11:03:33;;;;;;;12.65;6.97;;;;;;;14.07;41.02;97506.47;4425875;32;20130;-80
2022/04/19 11:06:03;;;;;;;15.30;8.02;;;;;;;13.73;44.62;97504.41;4426056;32;20101;-80
2022/04/19 11:08:36;;;;;;;13.35;7.00;;;;;;;13.56;46.41;97501.13;4426095;32;20111;-79
2022/04/19 11:11:03;;;;;;;14.70;7.47;;;;;;;13.66;46.86;97498.78;4424934;32;20165;-79
2022/04/19 11:13:36;;;;;;;13.65;7.15;;;;;;;14.03;45.62;97510.19;4425779;32;20602;-79
2022/04/19 11:16:07;;;;;;;14.30;7.32;;;;;;;14.22;45.09;97502.03;4425129;32;20094;-77
2022/04/19 11:18:58;;;;;;;14.75;7.95;;;;;;;13.75;47.55;97505.12;4425568;32;20506;-76
2022/04/19 11:21:46;;;;;;;15.70;8.03;;;;;;;13.66;46.00;97498.78;4425982;32;20380;-76
2022/04/19 11:24:52;;;;;;;17.27;8.27;;;;;;;13.25;46.34;97502.22;4425655;32;20165;-77
2022/04/19 11:27:19;;;;;;;15.00;8.48;;;;;;;13.37;47.42;97507.56;4425409;32;20093;-76
2022/04/19 11:29:50;;;;;;;14.00;7.80;;;;;;;14.07;47.44;97506.47;4425482;32;20103;-77
2022/04/19 11:32:25;;;;;;;13.18;7.28;;;;;;;15.07;43.67;97507.59;4425456;32;20094;-76
2022/04/19 11:35:01;;;;;;;16.42;8.40;;;;;;;15.17;43.27;97517.22;4425496;32;20109;-77
2022/04/19 11:37:32;;;;;;;13.27;7.35;;;;;;;13.93;46.24;97503.97;4412002;32;20145;-77
2022/04/19 11:48:33;;;;;;;14.40;8.07;;;;;;;16.97;37.42;97500.59;4425478;32;20219;-78
2022/04/19 11:51:10;;;;;;;13.00;7.60;;;;;;;16.84;40.93;97499.88;4411792;32;20208;-78
2022/04/19 11:53:37;;;;;;;14.20;7.85;;;;;;;17.44;37.66;97493.44;4411465;32;20117;-77
2022/04/19 11:56:06;;;;;;;12.88;7.62;;;;;;;16.93;39.48;97488.75;4425251;32;20157;-78
2022/04/19 11:58:34;;;;;;;13.80;7.85;;;;;;;16.76;40.13;97492.66;4411897;32;20499;-78
2022/04/19 12:01:04;;;;;;;13.98;8.05;;;;;;;16.57;39.75;97485.37;4425141;32;20133;-77
2022/04/19 12:03:36;;;;;;;13.35;6.78;;;;;;;15.75;41.39;97481.13;4411863;32;20107;-76
2022/04/19 12:06:07;;;;;;;12.48;6.95;;;;;;;16.45;40.81;97481.91;4419589;32;20166;-76
2022/04/19 12:08:41;;;;;;;12.75;7.00;;;;;;;15.98;40.59;97482.88;4422536;32;20105;-77
2022/04/19 12:11:25;;;;;;;12.52;7.15;;;;;;;16.91;39.82;97477.63;4420340;32;20058;-79
2022/04/19 12:13:52;;;;;;;11.50;6.62;;;;;;;16.79;38.94;97471.56;4416537;32;20456;-79
2022/04/19 12:16:34;;;;;;;13.05;7.43;;;;;;;16.23;39.20;97468.03;4418326;32;20149;-77
2022/04/19 12:19:10;;;;;;;13.13;7.10;;;;;;;16.73;39.63;97477.25;4425484;32;20824;-78
2022/04/19 12:21:42;;;;;;;12.95;7.60;;;;;;;16.13;41.08;97465.28;4425178;32;20108;-79
2022/04/19 12:24:19;;;;;;;12.73;6.85;;;;;;;16.91;37.94;97468.03;4411571;32;20126;-80